Grizzly Air Cargo 5113


PANC
Ted Stevens Anchorage International Airport
Anchorage, Alaska, US
PAFA
Fairbanks International Airport
Fairbanks, Alaska, US

Activity Log

Date Flight Route Aircraft Duration
11/22/2020 GRZ5113 CAWIN LIBER3 B722 1h 13m
10/12/2019 GRZ503 CAWIN LIBER3 B722 0h 48m
10/08/2019 GRZ503 CAWIN LIBER3 B722 0h 45m
09/29/2019 GRZ503 CAWIN LIBER3 B722 0h 54m
09/17/2019 GRZ503 CAWIN LIBER3 B722 0h 56m
07/08/2019 GRZ503 CAWIN LIBER3 B722 1h 04m
07/03/2019 GRZ503 TED J115 TUCKS J115 BINAL J115 DUT SIYNY ADK B722 3h 12m
06/21/2019 GRZ503 CAWIN LIBER3 B722 1h 06m

Route Details

Aircraft Information
Primary: Boeing 727-200F
Backup: Boeing 737-800BCF
Route Data
Distance: 227nm
Sched. Duration: 1h 00m
Avg. Duration: 1h 05m (+5m)
Times Flown: 8
Recm'd Route: CAWIN LIBER3
Planned Altitude: 30,000ft
Origin Wx: PANC 251853Z 06007KT 6SM BR BKN004 M06/M07 A2975 RMK AO2 SLP076 T10611072
Dest. Wx: PAFA 251853Z 00000KT 10SM SCT040 M22/M25 A2997 RMK AO2 SLP162 T12171250
Notes:

Financial History
Total Freight: 315,325lbs
Average Load: 39,416lbs/flt
Fuel Used: 89,617lbs
Avg. Fuel Used: 11,202lbs/flt
Fuel Expense: $111,697
Avg. Fuel Expense: $13,962
Avg. Fuel Cost: $1.25/lbs
Total Gross Income: $454,371
Pilot Pay: $1,512
Total Expenses: $49,488
Total Revenue: $291,162
Average Revenue: $56,796.43